Absarokee, MT

12:57 AM MDT on July 07, 2015 (GMT -0600)
North Davidson Ave., Absarokee | | Change Station
CLOSE
Current Station
Personal Weather Station
Location: Absarokee, MT
Elevation: 4042 ft
Nearby Weather Stations

Elev 4042 ft 45.52 °N, 109.44 °W | Updated 18 seconds ago

Clear
Clear
55.8 °F
Feels Like 55.8 °F
N
0.2
Wind Variable Wind from South
Gusts 1.8 mph

Today
High -- | Low -- °F
--% Chance of Precip.
Yesterday
High -- | Low -- °F
Precip. -- in
5:36 AM 9:08 PM
Waning Gibbous, 68% visible
Pressure 30.06 in
Visibility 10.0 miles
Clouds Few 25000 ft
Dew Point 47 °F
Humidity 73%
Rainfall 0.00 in
Snow Depth Not available.
UV 0 out of 12
Pollen 4.60 out of 12
Air Quality Not available.
Flu Activity Not available.
METAR KBIL 070653Z 36004KT 10SM FEW250 16/11 A3012 RMK AO2 SLP180 T01560106 402330122

More Conditions Fewer Conditions

Pressure 30.06 in
Visibility 10.0 miles
Clouds Few 25000 ft
Dew Point 47 °F
Humidity 73%
Rainfall 0.00 in
Snow Depth Not available.
UV 0 out of 12
Pollen 4.60 out of 12
Air Quality Not available.
Flu Activity Not available.
METAR KBIL 070653Z 36004KT 10SM FEW250 16/11 A3012 RMK AO2 SLP180 T01560106 402330122

More Conditions Fewer Conditions

10-Day Weather Forecast

×

Almanac

Astronomy

Jul. 07, 2015 Rise Set
Actual Time
Civil Twilight
Nautical Twilight
Astronomical Twilight
Moon
Length of Visible Light
Length of Day
Tomorrow will be .
, % of the Moon is Illuminated

Today's Extremes

State Highs State Lows

Community

WunderPhotos

Upload Photos

1,835,743 photos uploaded!

WunderBlogs® & News

Nearby

Air Quality

  Air Quality AQ Index Pollutant
Not available.

Snow Depth

Station Depth Elevation

Earthquake Activity

City Distance Mag. Time & Date
Minimum magnitude displayed is 2.5.

Coastal Water Temperatures

Place Temperature

Stations

Nearby Weather Stations

Station Location Temp. Windchill Dew Point Humidity Wind Precip. Elev Updated Type